createdAt,value
2022-10-06T00:00:05.535Z,9.32
2022-10-06T00:02:37.620Z,9.50
2022-10-06T00:05:04.534Z,12.23
2022-10-06T00:07:31.206Z,9.32
2022-10-06T00:09:57.857Z,11.45
2022-10-06T00:12:24.505Z,19.73
2022-10-06T00:14:51.147Z,8.68
2022-10-06T00:17:17.798Z,8.23
2022-10-06T00:19:44.588Z,9.02
2022-10-06T00:22:11.283Z,8.15
2022-10-06T00:24:37.878Z,18.23
2022-10-06T00:27:04.488Z,6.70
2022-10-06T00:29:31.179Z,6.05
2022-10-06T00:31:57.880Z,11.63
2022-10-06T00:34:25.463Z,6.35
2022-10-06T00:36:52.073Z,7.22
2022-10-06T00:39:32.262Z,8.32
2022-10-06T00:41:59.793Z,11.23
2022-10-06T00:44:26.411Z,7.07
2022-10-06T00:46:53.910Z,5.53
2022-10-06T00:49:30.967Z,7.95
2022-10-06T00:52:07.522Z,8.20
2022-10-06T00:54:36.228Z,9.55
2022-10-06T00:57:04.735Z,10.23
2022-10-06T00:59:31.837Z,7.18
2022-10-06T01:02:03.404Z,6.05
2022-10-06T01:04:32.387Z,10.32
2022-10-06T01:06:59.749Z,7.78
2022-10-06T01:09:26.856Z,7.80
2022-10-06T01:11:55.867Z,9.77
2022-10-06T01:14:23.213Z,13.68
2022-10-06T01:16:54.744Z,5.47
2022-10-06T01:19:53.291Z,12.10
2022-10-06T01:22:47.019Z,8.05
2022-10-06T01:25:15.831Z,6.07
2022-10-06T01:27:44.336Z,10.95
2022-10-06T01:30:14.986Z,6.90
2022-10-06T01:32:41.765Z,6.35
2022-10-06T01:35:09.522Z,8.98
2022-10-06T01:37:36.215Z,8.52
2022-10-06T01:40:02.977Z,13.35
2022-10-06T01:42:32.043Z,7.15
2022-10-06T01:44:59.438Z,6.25
2022-10-06T01:47:26.008Z,11.73
2022-10-06T01:49:52.782Z,9.77
2022-10-06T01:52:20.075Z,7.05
2022-10-06T01:54:46.699Z,11.57
2022-10-06T01:57:13.488Z,7.70
2022-10-06T01:59:40.241Z,8.75
2022-10-06T02:02:06.925Z,11.70
2022-10-06T02:04:33.537Z,8.95
2022-10-06T02:07:00.173Z,9.00
2022-10-06T02:09:26.789Z,8.57
2022-10-06T02:11:53.424Z,7.50
2022-10-06T02:14:20.022Z,7.15
2022-10-06T02:16:46.628Z,7.40
2022-10-06T02:19:13.261Z,9.13
2022-10-06T02:21:41.352Z,9.00
2022-10-06T02:24:08.023Z,11.10
2022-10-06T02:26:34.780Z,7.97
2022-10-06T02:29:01.535Z,11.18
2022-10-06T02:31:28.560Z,8.20
2022-10-06T02:33:55.317Z,9.40
2022-10-06T02:36:22.751Z,10.80
2022-10-06T02:38:49.425Z,8.20
2022-10-06T02:41:16.148Z,7.85
2022-10-06T02:43:44.796Z,9.40
2022-10-06T02:46:13.228Z,8.07
2022-10-06T02:48:43.681Z,9.85
2022-10-06T02:51:13.078Z,10.15
2022-10-06T02:53:40.310Z,20.40
2022-10-06T02:56:10.989Z,8.57
2022-10-06T02:58:39.980Z,10.27
2022-10-06T03:01:08.812Z,11.00
2022-10-06T03:03:36.220Z,8.20
2022-10-06T03:06:05.650Z,8.93
2022-10-06T03:08:33.044Z,9.30
2022-10-06T03:11:04.118Z,8.40
2022-10-06T03:13:31.223Z,14.82
2022-10-06T03:15:58.207Z,10.20
2022-10-06T03:18:25.289Z,10.68
2022-10-06T03:20:54.146Z,9.68
2022-10-06T03:23:20.864Z,10.57
2022-10-06T03:25:56.559Z,9.40
2022-10-06T03:28:23.441Z,13.90
2022-10-06T03:30:50.482Z,11.77
2022-10-06T03:33:17.109Z,10.98
2022-10-06T03:35:43.701Z,11.07
2022-10-06T03:38:10.336Z,10.13
2022-10-06T03:40:36.921Z,9.00
2022-10-06T03:43:03.566Z,12.45
2022-10-06T03:45:30.210Z,8.82
2022-10-06T03:47:56.811Z,13.40
2022-10-06T03:50:23.509Z,9.10
2022-10-06T03:52:51.459Z,12.85
2022-10-06T03:55:18.070Z,11.38
2022-10-06T03:57:44.750Z,9.90
2022-10-06T04:00:12.220Z,11.80
2022-10-06T04:02:38.841Z,8.63
2022-10-06T04:05:05.854Z,13.40
2022-10-06T04:07:32.486Z,9.68
2022-10-06T04:09:59.140Z,13.52
2022-10-06T04:12:25.837Z,9.73
2022-10-06T04:14:54.388Z,11.15
2022-10-06T04:17:24.525Z,10.57
2022-10-06T04:19:51.140Z,14.75
2022-10-06T04:22:17.726Z,15.15
2022-10-06T04:24:44.407Z,12.75
2022-10-06T04:27:29.392Z,12.15
2022-10-06T04:29:56.470Z,9.93
2022-10-06T04:32:23.093Z,7.97
2022-10-06T04:34:49.869Z,12.68
2022-10-06T04:37:16.581Z,16.83
2022-10-06T04:39:43.184Z,19.17
2022-10-06T04:42:09.856Z,26.23
2022-10-06T04:44:36.451Z,21.35
2022-10-06T04:47:04.422Z,24.90
2022-10-06T04:49:31.792Z,18.17
2022-10-06T04:51:58.459Z,16.90
2022-10-06T04:54:27.937Z,17.98
2022-10-06T04:56:57.224Z,18.42
2022-10-06T04:59:43.819Z,23.63
2022-10-06T05:02:10.993Z,22.17
2022-10-06T05:04:37.716Z,28.65
2022-10-06T05:07:04.338Z,31.88
2022-10-06T05:09:30.920Z,23.42
2022-10-06T05:11:58.094Z,15.05
2022-10-06T05:14:24.849Z,19.25
2022-10-06T05:16:51.503Z,22.10
2022-10-06T05:19:20.210Z,15.70
2022-10-06T05:21:46.867Z,18.00
2022-10-06T05:24:13.482Z,12.82
2022-10-06T05:26:40.091Z,16.67
2022-10-06T05:29:06.803Z,17.85
2022-10-06T05:31:39.224Z,18.00
2022-10-06T05:34:06.564Z,22.35
2022-10-06T05:36:34.169Z,15.15
2022-10-06T05:39:02.244Z,20.02
2022-10-06T05:41:31.147Z,18.35
2022-10-06T05:43:58.618Z,15.93
2022-10-06T05:46:34.283Z,15.93
2022-10-06T05:49:10.544Z,13.55
2022-10-06T05:51:40.095Z,16.52
2022-10-06T05:54:06.988Z,13.57
2022-10-06T05:56:36.361Z,13.77
2022-10-06T05:59:03.329Z,13.90
2022-10-06T06:01:40.022Z,9.05
2022-10-06T06:04:11.493Z,8.82
2022-10-06T06:06:43.258Z,8.32
2022-10-06T06:09:13.955Z,10.48
2022-10-06T06:11:42.723Z,10.95
2022-10-06T06:14:11.901Z,7.60
2022-10-06T06:16:39.959Z,7.20
2022-10-06T06:19:08.777Z,11.38
2022-10-06T06:21:35.781Z,10.23
2022-10-06T06:24:02.921Z,13.05
2022-10-06T06:26:32.054Z,8.45
2022-10-06T06:29:04.100Z,8.40
2022-10-06T06:31:38.943Z,7.85
2022-10-06T06:34:07.261Z,16.55
2022-10-06T06:36:37.410Z,17.08
2022-10-06T06:39:06.170Z,12.75
2022-10-06T06:41:36.002Z,9.85
2022-10-06T06:44:02.646Z,7.70
2022-10-06T06:46:32.022Z,17.13
2022-10-06T06:49:02.223Z,19.90
2022-10-06T06:51:28.840Z,21.85
2022-10-06T06:53:55.736Z,25.38
2022-10-06T06:56:23.166Z,22.42
2022-10-06T06:58:50.337Z,35.22
2022-10-06T07:01:19.662Z,18.35
2022-10-06T07:03:57.533Z,20.95
2022-10-06T07:06:28.814Z,19.15
2022-10-06T07:08:57.204Z,14.00
2022-10-06T07:11:26.925Z,7.95
2022-10-06T07:13:58.766Z,16.15
2022-10-06T07:16:44.205Z,15.27
2022-10-06T07:19:29.951Z,10.32
2022-10-06T07:22:17.390Z,13.75
2022-10-06T07:25:03.266Z,8.75
2022-10-06T07:27:31.510Z,9.30
2022-10-06T07:29:58.166Z,10.45
2022-10-06T07:32:28.801Z,8.48
2022-10-06T07:34:56.074Z,11.30
2022-10-06T07:37:24.171Z,9.95
2022-10-06T07:39:50.966Z,8.48
2022-10-06T07:42:18.441Z,9.50
2022-10-06T07:45:09.279Z,10.38
2022-10-06T07:47:38.274Z,6.47
2022-10-06T07:50:08.836Z,11.00
2022-10-06T07:52:39.547Z,13.60
2022-10-06T07:55:07.472Z,10.68
2022-10-06T07:57:35.407Z,7.55
2022-10-06T08:00:07.303Z,7.35
2022-10-06T08:02:35.865Z,7.00
2022-10-06T08:05:04.202Z,8.98
2022-10-06T08:07:30.928Z,8.18
2022-10-06T08:09:57.562Z,10.02
2022-10-06T08:12:33.202Z,8.05
2022-10-06T08:15:06.867Z,9.48
2022-10-06T08:17:36.584Z,9.63
2022-10-06T08:20:09.207Z,7.22
2022-10-06T08:22:36.386Z,8.65
2022-10-06T08:25:08.267Z,7.13
2022-10-06T08:27:36.811Z,9.10
2022-10-06T08:30:07.813Z,7.57
2022-10-06T08:32:34.963Z,5.30
2022-10-06T08:35:01.857Z,8.20
2022-10-06T08:37:28.516Z,7.38
2022-10-06T08:39:55.291Z,8.95
2022-10-06T08:42:46.639Z,7.45
2022-10-06T08:45:39.816Z,8.40
2022-10-06T08:48:10.025Z,7.15
2022-10-06T08:50:52.396Z,6.93
2022-10-06T08:53:29.548Z,8.68
2022-10-06T08:56:18.322Z,9.77
2022-10-06T08:58:55.291Z,8.15
2022-10-06T09:01:45.023Z,7.03
2022-10-06T09:04:26.022Z,10.20
2022-10-06T09:07:15.566Z,6.70
2022-10-06T09:10:04.013Z,5.72
2022-10-06T09:12:32.259Z,5.95
2022-10-06T09:15:14.942Z,9.40
2022-10-06T09:17:50.007Z,6.30
2022-10-06T09:23:05.851Z,12.50
2022-10-06T09:25:33.501Z,7.30
2022-10-06T09:28:01.360Z,8.57
2022-10-06T09:30:28.174Z,7.68
2022-10-06T09:32:59.316Z,6.70
2022-10-06T09:35:29.033Z,6.90
2022-10-06T09:38:09.243Z,9.18
2022-10-06T09:40:49.250Z,10.35
2022-10-06T09:43:30.583Z,5.97
2022-10-06T09:46:41.917Z,11.10
2022-10-06T09:49:17.628Z,5.95
2022-10-06T09:52:09.082Z,9.43
2022-10-06T09:54:38.775Z,9.25
2022-10-06T09:57:26.085Z,11.40
2022-10-06T09:59:53.274Z,5.70
2022-10-06T10:02:37.119Z,6.30
2022-10-06T10:05:20.151Z,5.88
2022-10-06T10:07:49.576Z,6.00
2022-10-06T10:10:20.723Z,7.90
2022-10-06T10:13:24.178Z,6.30
2022-10-06T10:16:02.026Z,4.55
2022-10-06T10:18:30.818Z,4.78
2022-10-06T10:21:08.459Z,8.45
2022-10-06T10:23:42.697Z,7.45
2022-10-06T10:26:17.776Z,5.37
2022-10-06T10:31:31.325Z,9.18
2022-10-06T10:34:26.166Z,7.20
2022-10-06T10:37:10.433Z,7.70
2022-10-06T10:39:50.764Z,4.68
2022-10-06T10:42:42.674Z,4.85
2022-10-06T10:45:34.477Z,13.02
2022-10-06T10:48:04.967Z,5.70
2022-10-06T10:51:01.505Z,5.25
2022-10-06T10:53:31.254Z,5.10
2022-10-06T10:55:58.007Z,7.43
2022-10-06T10:58:39.686Z,5.70
2022-10-06T11:01:12.325Z,8.77
2022-10-06T11:03:39.200Z,4.47
2022-10-06T11:06:19.531Z,4.35
2022-10-06T11:08:58.368Z,5.35
2022-10-06T11:11:38.669Z,10.32
2022-10-06T11:14:16.471Z,4.55
2022-10-06T11:17:07.259Z,7.00
2022-10-06T11:20:08.765Z,8.68
2022-10-06T11:22:45.333Z,5.53
2022-10-06T11:25:15.806Z,6.68
2022-10-06T11:27:54.800Z,5.68
2022-10-06T11:30:26.518Z,8.65
2022-10-06T11:33:14.355Z,7.97
2022-10-06T11:35:43.591Z,6.30
2022-10-06T11:38:22.366Z,7.43
2022-10-06T11:41:09.928Z,7.30
2022-10-06T11:43:39.944Z,9.20
2022-10-06T11:46:44.069Z,4.90
2022-10-06T11:49:30.128Z,6.15
2022-10-06T11:51:59.676Z,5.43
2022-10-06T11:54:40.297Z,5.43
2022-10-06T11:57:30.920Z,7.28
2022-10-06T12:00:18.406Z,6.03
2022-10-06T12:02:46.987Z,12.75
2022-10-06T12:05:53.997Z,5.95
2022-10-06T12:08:13.860Z,4.90
2022-10-06T12:10:49.586Z,7.03
2022-10-06T12:14:34.735Z,8.88
2022-10-06T12:19:54.001Z,10.90
2022-10-06T12:22:34.650Z,6.65
2022-10-06T12:25:09.046Z,9.95
2022-10-06T12:27:44.651Z,8.30
2022-10-06T12:30:21.505Z,6.45
2022-10-06T12:32:55.045Z,6.40
2022-10-06T12:35:34.210Z,9.82
2022-10-06T12:38:06.162Z,10.20
2022-10-06T12:40:42.055Z,8.68
2022-10-06T12:43:14.550Z,5.07
2022-10-06T12:45:46.379Z,6.30
2022-10-06T12:48:50.410Z,6.57
2022-10-06T12:51:39.010Z,6.05
2022-10-06T12:54:22.363Z,4.85
2022-10-06T12:57:03.337Z,6.13
2022-10-06T12:59:32.436Z,4.68
2022-10-06T13:02:02.343Z,6.78
2022-10-06T13:04:51.991Z,9.00
2022-10-06T13:07:24.879Z,6.60
2022-10-06T13:09:54.501Z,13.48
2022-10-06T13:12:30.173Z,7.00
2022-10-06T13:15:10.170Z,7.70
2022-10-06T13:18:04.516Z,7.80
2022-10-06T13:20:38.223Z,7.47
2022-10-06T13:23:10.167Z,7.32
2022-10-06T13:25:45.571Z,14.18
2022-10-06T13:28:27.547Z,6.55
2022-10-06T13:30:55.495Z,5.57
2022-10-06T13:33:23.155Z,5.93
2022-10-06T13:35:53.000Z,6.65
2022-10-06T13:38:21.158Z,4.63
2022-10-06T13:41:17.717Z,5.78
2022-10-06T13:43:51.537Z,7.78
2022-10-06T13:46:21.683Z,8.68
2022-10-06T13:48:59.690Z,8.57
2022-10-06T13:51:31.831Z,5.65
2022-10-06T13:54:01.216Z,7.47
2022-10-06T13:56:38.373Z,5.47
2022-10-06T13:59:46.333Z,6.53
2022-10-06T14:02:19.251Z,7.15
2022-10-06T14:05:21.031Z,7.97
2022-10-06T14:07:51.735Z,4.97
2022-10-06T14:10:31.426Z,9.02
2022-10-06T14:13:00.744Z,9.13
2022-10-06T14:15:30.898Z,11.52
2022-10-06T14:18:02.069Z,6.28
2022-10-06T14:20:47.317Z,7.13
2022-10-06T14:23:51.893Z,8.13
2022-10-06T14:26:24.591Z,7.70
2022-10-06T14:28:52.957Z,8.32
2022-10-06T14:31:21.030Z,6.35
2022-10-06T14:33:49.249Z,8.10
2022-10-06T14:36:37.101Z,9.93
2022-10-06T14:39:05.409Z,9.30
2022-10-06T14:41:32.554Z,10.25
2022-10-06T14:44:02.173Z,9.82
2022-10-06T14:46:29.639Z,8.40
2022-10-06T14:48:57.437Z,9.55
2022-10-06T14:51:26.232Z,8.52
2022-10-06T14:53:54.365Z,9.98
2022-10-06T14:56:23.323Z,12.02
2022-10-06T14:58:50.440Z,9.60
2022-10-06T15:01:17.677Z,7.80
2022-10-06T15:03:51.197Z,13.10
2022-10-06T15:06:36.604Z,8.68
2022-10-06T15:09:05.280Z,6.50
2022-10-06T15:11:32.032Z,8.57
2022-10-06T15:13:59.345Z,7.50
2022-10-06T15:16:29.892Z,7.88
2022-10-06T15:18:58.623Z,8.65
2022-10-06T15:21:25.547Z,9.50
2022-10-06T15:23:56.852Z,11.85
2022-10-06T15:26:42.073Z,9.55
2022-10-06T15:29:08.710Z,8.73
2022-10-06T15:31:40.225Z,9.65
2022-10-06T15:34:09.064Z,13.95
2022-10-06T15:36:37.584Z,9.23
2022-10-06T15:39:12.808Z,9.25
2022-10-06T15:41:41.443Z,7.57
2022-10-06T15:44:08.723Z,7.03
2022-10-06T15:46:47.151Z,12.23
2022-10-06T15:49:15.482Z,8.45
2022-10-06T15:51:49.762Z,8.80
2022-10-06T15:54:25.382Z,8.38
2022-10-06T15:56:59.758Z,11.05
2022-10-06T15:59:28.524Z,8.82
2022-10-06T16:01:57.667Z,7.10
2022-10-06T16:04:46.219Z,9.18
2022-10-06T16:07:15.920Z,10.55
2022-10-06T16:09:45.080Z,9.90
2022-10-06T16:12:16.384Z,11.38
2022-10-06T16:14:43.672Z,11.00
2022-10-06T16:17:12.144Z,9.00
2022-10-06T16:19:40.187Z,8.20
2022-10-06T16:22:08.990Z,10.43
2022-10-06T16:24:35.587Z,11.10
2022-10-06T16:27:02.335Z,9.63
2022-10-06T16:29:29.169Z,10.63
2022-10-06T16:31:56.018Z,8.82
2022-10-06T16:34:23.218Z,12.65
2022-10-06T16:36:49.860Z,10.23
2022-10-06T16:39:21.437Z,13.27
2022-10-06T16:41:49.326Z,15.65
2022-10-06T16:44:16.535Z,11.35
2022-10-06T16:46:43.762Z,9.82
2022-10-06T16:49:11.015Z,11.48
2022-10-06T16:51:42.927Z,11.85
2022-10-06T16:54:11.975Z,10.35
2022-10-06T16:56:44.083Z,16.48
2022-10-06T16:59:17.743Z,14.60
2022-10-06T17:01:44.927Z,12.05
2022-10-06T17:04:12.801Z,15.30
2022-10-06T17:06:47.537Z,17.15
2022-10-06T17:09:16.421Z,13.95
2022-10-06T17:11:50.530Z,12.52
2022-10-06T17:14:17.735Z,13.68
2022-10-06T17:16:45.978Z,13.85
2022-10-06T17:19:14.331Z,11.68
2022-10-06T17:21:46.856Z,11.80
2022-10-06T17:24:14.810Z,11.15
2022-10-06T17:26:42.851Z,15.07
2022-10-06T17:29:18.863Z,12.80
2022-10-06T17:31:46.374Z,10.20
2022-10-06T17:34:19.800Z,13.93
2022-10-06T17:36:53.955Z,20.70
2022-10-06T17:39:22.627Z,13.60
2022-10-06T17:41:51.508Z,13.27
2022-10-06T17:44:23.833Z,14.18
2022-10-06T17:46:53.043Z,13.95
2022-10-06T17:49:20.969Z,10.57
2022-10-06T17:51:48.097Z,8.82
2022-10-06T17:54:19.078Z,10.63
2022-10-06T17:56:47.466Z,16.88
2022-10-06T17:59:17.532Z,10.60
2022-10-06T18:01:45.069Z,9.77
2022-10-06T18:04:15.654Z,7.22
2022-10-06T18:06:43.348Z,10.10
2022-10-06T18:09:10.516Z,8.02
2022-10-06T18:11:41.957Z,10.45
2022-10-06T18:14:13.482Z,11.57
2022-10-06T18:16:58.547Z,7.90
2022-10-06T18:19:30.415Z,8.07
2022-10-06T18:22:00.473Z,7.22
2022-10-06T18:24:29.442Z,8.95
2022-10-06T18:26:58.205Z,7.55
2022-10-06T18:29:29.043Z,7.78
2022-10-06T18:32:01.385Z,8.43
2022-10-06T18:37:23.512Z,6.38
2022-10-06T18:39:50.169Z,6.95
2022-10-06T18:42:16.895Z,6.75
2022-10-06T18:45:02.304Z,9.35
2022-10-06T18:47:47.452Z,7.53
2022-10-06T18:50:14.057Z,8.95
2022-10-06T18:52:43.680Z,10.50
2022-10-06T18:55:10.376Z,8.88
2022-10-06T18:57:37.002Z,9.50
2022-10-06T19:00:04.391Z,8.48
2022-10-06T19:02:32.330Z,8.45
2022-10-06T19:04:59.103Z,8.80
2022-10-06T19:07:30.776Z,7.47
2022-10-06T19:09:57.461Z,10.63
2022-10-06T19:12:24.082Z,7.63
2022-10-06T19:14:51.289Z,8.90
2022-10-06T19:17:18.098Z,10.25
2022-10-06T19:19:51.388Z,6.53
2022-10-06T19:22:21.678Z,10.32
2022-10-06T19:24:48.663Z,13.52
2022-10-06T19:27:23.998Z,9.73
2022-10-06T19:29:54.592Z,8.63
2022-10-06T19:32:28.480Z,10.93
2022-10-06T19:34:59.033Z,9.80
2022-10-06T19:37:30.500Z,8.43
2022-10-06T19:39:58.017Z,11.32
2022-10-06T19:42:43.111Z,11.20
2022-10-06T19:45:12.245Z,8.50
2022-10-06T19:47:40.190Z,10.52
2022-10-06T19:50:12.121Z,9.50
2022-10-06T19:52:42.865Z,12.40
2022-10-06T19:55:09.684Z,9.15
2022-10-06T19:57:36.648Z,9.10
2022-10-06T20:00:05.186Z,9.38
2022-10-06T20:02:31.930Z,9.63
2022-10-06T20:04:58.635Z,11.55
2022-10-06T20:07:27.971Z,12.50
2022-10-06T20:09:55.516Z,12.60
2022-10-06T20:12:25.395Z,10.75
2022-10-06T20:14:53.781Z,9.07
2022-10-06T20:17:20.954Z,10.05
2022-10-06T20:19:47.883Z,8.70
2022-10-06T20:22:15.342Z,11.63
2022-10-06T20:24:42.030Z,11.27
2022-10-06T20:27:09.134Z,9.32
2022-10-06T20:29:36.205Z,12.57
2022-10-06T20:32:05.366Z,11.07
2022-10-06T20:34:32.990Z,11.75
2022-10-06T20:37:02.186Z,12.32
2022-10-06T20:39:48.866Z,11.80
2022-10-06T20:42:16.082Z,9.68
2022-10-06T20:44:43.311Z,10.02
2022-10-06T20:47:11.086Z,8.00
2022-10-06T20:49:37.817Z,9.82
2022-10-06T20:52:05.833Z,11.43
2022-10-06T20:54:35.165Z,9.35
2022-10-06T20:57:04.444Z,9.80
2022-10-06T20:59:31.979Z,10.70
2022-10-06T21:02:00.329Z,10.70
2022-10-06T21:04:30.277Z,12.23
2022-10-06T21:06:57.814Z,11.35
2022-10-06T21:09:24.960Z,10.70
2022-10-06T21:11:52.374Z,12.38
2022-10-06T21:14:19.282Z,9.23
2022-10-06T21:16:48.261Z,10.70
2022-10-06T21:19:16.830Z,11.18
2022-10-06T21:21:45.882Z,13.20
2022-10-06T21:24:12.751Z,13.40
2022-10-06T21:26:42.587Z,12.32
2022-10-06T21:29:11.665Z,15.77
2022-10-06T21:31:38.732Z,13.20
2022-10-06T21:34:05.472Z,12.95
2022-10-06T21:36:32.581Z,9.48
2022-10-06T21:39:01.423Z,12.55
2022-10-06T21:41:31.561Z,12.68
2022-10-06T21:44:10.368Z,10.48
2022-10-06T21:46:42.640Z,12.52
2022-10-06T21:49:11.822Z,11.07
2022-10-06T21:51:39.197Z,9.13
2022-10-06T21:54:06.405Z,11.32
2022-10-06T21:56:34.089Z,11.23
2022-10-06T21:59:01.317Z,12.23
2022-10-06T22:01:32.841Z,9.90
2022-10-06T22:04:02.898Z,12.18
2022-10-06T22:06:30.830Z,9.60
2022-10-06T22:08:58.525Z,10.77
2022-10-06T22:11:27.655Z,11.68
2022-10-06T22:13:59.826Z,14.32
2022-10-06T22:16:30.038Z,14.93
2022-10-06T22:18:57.299Z,10.13
2022-10-06T22:21:29.101Z,12.63
2022-10-06T22:24:02.863Z,10.25
2022-10-06T22:26:31.187Z,10.18
2022-10-06T22:28:58.813Z,12.98
2022-10-06T22:31:26.825Z,11.20
2022-10-06T22:34:05.064Z,10.07
2022-10-06T22:36:33.192Z,9.60
2022-10-06T22:39:00.377Z,9.90
2022-10-06T22:41:27.319Z,9.60
2022-10-06T22:43:58.435Z,9.48
2022-10-06T22:46:26.568Z,13.60
2022-10-06T22:48:53.369Z,7.70
2022-10-06T22:51:20.736Z,10.30
2022-10-06T22:53:47.736Z,9.60
2022-10-06T22:56:14.536Z,11.10
2022-10-06T22:58:42.713Z,13.77
2022-10-06T23:01:11.608Z,11.45
2022-10-06T23:03:39.667Z,9.27
2022-10-06T23:06:07.333Z,8.88
2022-10-06T23:08:35.435Z,10.63
2022-10-06T23:11:10.189Z,8.43
2022-10-06T23:13:38.211Z,8.90
2022-10-06T23:16:08.003Z,9.98
2022-10-06T23:18:37.962Z,9.20
2022-10-06T23:21:05.526Z,13.88
2022-10-06T23:23:32.808Z,9.75
2022-10-06T23:26:13.983Z,14.77
2022-10-06T23:28:41.147Z,12.25
2022-10-06T23:31:09.375Z,13.35
2022-10-06T23:33:36.405Z,10.82
2022-10-06T23:36:05.475Z,12.23
2022-10-06T23:38:32.518Z,12.68
2022-10-06T23:40:59.271Z,9.63
2022-10-06T23:43:26.112Z,9.82
2022-10-06T23:45:52.886Z,11.30
2022-10-06T23:48:19.780Z,11.57
2022-10-06T23:51:03.007Z,11.32
2022-10-06T23:53:30.765Z,13.88
2022-10-06T23:55:59.992Z,14.43
2022-10-06T23:58:27.490Z,11.73
